sensor_id;sensor_type;location;lat;lon;timestamp;pressure;altitude;pressure_sealevel;temperature
70668;BMP280;58242;51.250;-1.118;2024-03-07T00:00:21;100928.91;;;11.27
70668;BMP280;58242;51.250;-1.118;2024-03-07T00:02:48;100923.56;;;11.27
70668;BMP280;58242;51.250;-1.118;2024-03-07T00:05:15;100932.66;;;11.26
70668;BMP280;58242;51.250;-1.118;2024-03-07T00:07:41;100923.03;;;11.25
70668;BMP280;58242;51.250;-1.118;2024-03-07T00:10:07;100932.16;;;11.24
70668;BMP280;58242;51.250;-1.118;2024-03-07T00:12:34;100921.44;;;11.24
70668;BMP280;58242;51.250;-1.118;2024-03-07T00:15:01;100921.44;;;11.24
70668;BMP280;58242;51.250;-1.118;2024-03-07T00:17:26;100919.09;;;11.22
70668;BMP280;58242;51.250;-1.118;2024-03-07T00:19:51;100917.19;;;11.23
70668;BMP280;58242;51.250;-1.118;2024-03-07T00:22:17;100915.63;;;11.22
70668;BMP280;58242;51.250;-1.118;2024-03-07T00:24:42;100917.50;;;11.21
70668;BMP280;58242;51.250;-1.118;2024-03-07T00:27:08;100925.81;;;11.20
70668;BMP280;58242;51.250;-1.118;2024-03-07T00:29:33;100921.59;;;11.19
70668;BMP280;58242;51.250;-1.118;2024-03-07T00:32:01;100921.09;;;11.17
70668;BMP280;58242;51.250;-1.118;2024-03-07T00:34:26;100922.50;;;11.14
70668;BMP280;58242;51.250;-1.118;2024-03-07T00:36:52;100920.91;;;11.13
70668;BMP280;58242;51.250;-1.118;2024-03-07T00:39:17;100916.97;;;11.11
70668;BMP280;58242;51.250;-1.118;2024-03-07T00:41:45;100922.34;;;11.11
70668;BMP280;58242;51.250;-1.118;2024-03-07T00:44:10;100921.84;;;11.09
70668;BMP280;58242;51.250;-1.118;2024-03-07T00:46:36;100930.94;;;11.08
70668;BMP280;58242;51.250;-1.118;2024-03-07T00:49:02;100928.88;;;11.05
70668;BMP280;58242;51.250;-1.118;2024-03-07T00:51:27;100926.53;;;11.04
70668;BMP280;58242;51.250;-1.118;2024-03-07T00:53:53;100921.78;;;11.01
70668;BMP280;58242;51.250;-1.118;2024-03-07T00:56:19;100913.28;;;10.99
70668;BMP280;58242;51.250;-1.118;2024-03-07T00:58:46;100922.72;;;10.96
70668;BMP280;58242;51.250;-1.118;2024-03-07T01:01:11;100919.53;;;10.94
70668;BMP280;58242;51.250;-1.118;2024-03-07T01:03:37;100919.84;;;10.93
70668;BMP280;58242;51.250;-1.118;2024-03-07T01:06:03;100922.03;;;10.91
70668;BMP280;58242;51.250;-1.118;2024-03-07T01:08:28;100912.75;;;10.89
70668;BMP280;58242;51.250;-1.118;2024-03-07T01:10:53;100911.47;;;10.86
70668;BMP280;58242;51.250;-1.118;2024-03-07T01:13:19;100909.56;;;10.87
70668;BMP280;58242;51.250;-1.118;2024-03-07T01:15:47;100917.41;;;10.83
70668;BMP280;58242;51.250;-1.118;2024-03-07T01:18:13;100916.94;;;10.81
70668;BMP280;58242;51.250;-1.118;2024-03-07T01:20:39;100926.34;;;10.79
70668;BMP280;58242;51.250;-1.118;2024-03-07T01:23:04;100921.31;;;10.77
70668;BMP280;58242;51.250;-1.118;2024-03-07T01:25:29;100918.44;;;10.74
70668;BMP280;58242;51.250;-1.118;2024-03-07T01:27:59;100924.13;;;10.73
70668;BMP280;58242;51.250;-1.118;2024-03-07T01:30:24;100913.25;;;10.69
70668;BMP280;58242;51.250;-1.118;2024-03-07T01:32:51;100911.66;;;10.68
70668;BMP280;58242;51.250;-1.118;2024-03-07T01:35:16;100915.72;;;10.66
70668;BMP280;58242;51.250;-1.118;2024-03-07T01:37:42;100916.31;;;10.63
70668;BMP280;58242;51.250;-1.118;2024-03-07T01:40:07;100912.38;;;10.60
70668;BMP280;58242;51.250;-1.118;2024-03-07T01:42:33;100911.91;;;10.59
70668;BMP280;58242;51.250;-1.118;2024-03-07T01:44:59;100903.38;;;10.57
70668;BMP280;58242;51.250;-1.118;2024-03-07T01:47:24;100903.19;;;10.53
70668;BMP280;58242;51.250;-1.118;2024-03-07T01:49:49;100905.41;;;10.51
70668;BMP280;58242;51.250;-1.118;2024-03-07T01:52:15;100894.50;;;10.48
70668;BMP280;58242;51.250;-1.118;2024-03-07T01:54:40;100894.00;;;10.46
70668;BMP280;58242;51.250;-1.118;2024-03-07T01:57:06;100888.16;;;10.44
70668;BMP280;58242;51.250;-1.118;2024-03-07T01:59:33;100888.78;;;10.41
70668;BMP280;58242;51.250;-1.118;2024-03-07T02:01:58;100881.38;;;10.38
70668;BMP280;58242;51.250;-1.118;2024-03-07T02:04:24;100873.97;;;10.35
70668;BMP280;58242;51.250;-1.118;2024-03-07T02:06:50;100876.13;;;10.33
70668;BMP280;58242;51.250;-1.118;2024-03-07T02:09:15;100873.00;;;10.31
70668;BMP280;58242;51.250;-1.118;2024-03-07T02:11:42;100873.59;;;10.28
70668;BMP280;58242;51.250;-1.118;2024-03-07T02:14:08;100868.06;;;10.25
70668;BMP280;58242;51.250;-1.118;2024-03-07T02:16:33;100864.09;;;10.23
70668;BMP280;58242;51.250;-1.118;2024-03-07T02:18:58;100869.25;;;10.19
70668;BMP280;58242;51.250;-1.118;2024-03-07T02:21:25;100869.06;;;10.16
70668;BMP280;58242;51.250;-1.118;2024-03-07T02:23:50;100858.69;;;10.14
70668;BMP280;58242;51.250;-1.118;2024-03-07T02:26:15;100869.97;;;10.11
70668;BMP280;58242;51.250;-1.118;2024-03-07T02:28:40;100859.91;;;10.08
70668;BMP280;58242;51.250;-1.118;2024-03-07T02:31:06;100863.47;;;10.04
70668;BMP280;58242;51.250;-1.118;2024-03-07T02:33:31;100858.72;;;10.01
70668;BMP280;58242;51.250;-1.118;2024-03-07T02:35:57;100863.56;;;9.99
70668;BMP280;58242;51.250;-1.118;2024-03-07T02:38:22;100863.09;;;9.97
70668;BMP280;58242;51.250;-1.118;2024-03-07T02:40:48;100860.25;;;9.94
70668;BMP280;58242;51.250;-1.118;2024-03-07T02:43:13;100866.19;;;9.91
70668;BMP280;58242;51.250;-1.118;2024-03-07T02:45:39;100864.09;;;9.88
70668;BMP280;58242;51.250;-1.118;2024-03-07T02:48:04;100855.09;;;9.84
70668;BMP280;58242;51.250;-1.118;2024-03-07T02:50:34;100856.50;;;9.82
70668;BMP280;58242;51.250;-1.118;2024-03-07T02:53:00;100854.44;;;9.79
70668;BMP280;58242;51.250;-1.118;2024-03-07T02:55:25;100853.41;;;9.75
70668;BMP280;58242;51.250;-1.118;2024-03-07T02:57:51;100859.84;;;9.74
70668;BMP280;58242;51.250;-1.118;2024-03-07T03:00:17;100843.63;;;9.71
70668;BMP280;58242;51.250;-1.118;2024-03-07T03:02:51;100853.81;;;9.69
70668;BMP280;58242;51.250;-1.118;2024-03-07T03:05:17;100840.25;;;9.65
70668;BMP280;58242;51.250;-1.118;2024-03-07T03:07:43;100853.94;;;9.64
70668;BMP280;58242;51.250;-1.118;2024-03-07T03:10:26;100853.94;;;9.64
70668;BMP280;58242;51.250;-1.118;2024-03-07T03:12:54;100853.31;;;9.67
70668;BMP280;58242;51.250;-1.118;2024-03-07T03:15:21;100845.22;;;9.72
70668;BMP280;58242;51.250;-1.118;2024-03-07T03:17:47;100844.03;;;9.77
70668;BMP280;58242;51.250;-1.118;2024-03-07T03:20:13;100844.41;;;9.84
70668;BMP280;58242;51.250;-1.118;2024-03-07T03:22:52;100832.56;;;9.90
70668;BMP280;58242;51.250;-1.118;2024-03-07T03:25:18;100832.13;;;9.96
70668;BMP280;58242;51.250;-1.118;2024-03-07T03:27:44;100833.63;;;10.02
70668;BMP280;58242;51.250;-1.118;2024-03-07T03:30:09;100835.69;;;10.05
70668;BMP280;58242;51.250;-1.118;2024-03-07T03:32:38;100841.63;;;10.02
70668;BMP280;58242;51.250;-1.118;2024-03-07T03:35:05;100833.47;;;10.07
70668;BMP280;58242;51.250;-1.118;2024-03-07T03:37:30;100833.38;;;10.12
70668;BMP280;58242;51.250;-1.118;2024-03-07T03:39:55;100838.09;;;10.15
70668;BMP280;58242;51.250;-1.118;2024-03-07T03:42:21;100836.91;;;10.21
70668;BMP280;58242;51.250;-1.118;2024-03-07T03:44:46;100838.34;;;10.26
70668;BMP280;58242;51.250;-1.118;2024-03-07T03:47:12;100836.94;;;10.29
70668;BMP280;58242;51.250;-1.118;2024-03-07T03:49:37;100842.50;;;10.32
70668;BMP280;58242;51.250;-1.118;2024-03-07T03:52:02;100841.09;;;10.35
70668;BMP280;58242;51.250;-1.118;2024-03-07T03:54:28;100841.28;;;10.38
70668;BMP280;58242;51.250;-1.118;2024-03-07T03:56:54;100834.72;;;10.44
70668;BMP280;58242;51.250;-1.118;2024-03-07T03:59:19;100841.81;;;10.48
70668;BMP280;58242;51.250;-1.118;2024-03-07T04:01:45;100829.13;;;10.54
70668;BMP280;58242;51.250;-1.118;2024-03-07T04:04:10;100840.81;;;10.58
70668;BMP280;58242;51.250;-1.118;2024-03-07T04:06:35;100838.78;;;10.63
70668;BMP280;58242;51.250;-1.118;2024-03-07T04:09:01;100832.84;;;10.66
70668;BMP280;58242;51.250;-1.118;2024-03-07T04:11:26;100838.34;;;10.69
70668;BMP280;58242;51.250;-1.118;2024-03-07T04:13:52;100842.00;;;10.73
70668;BMP280;58242;51.250;-1.118;2024-03-07T04:16:17;100842.63;;;10.70
70668;BMP280;58242;51.250;-1.118;2024-03-07T04:18:42;100846.06;;;10.71
70668;BMP280;58242;51.250;-1.118;2024-03-07T04:21:07;100842.13;;;10.68
70668;BMP280;58242;51.250;-1.118;2024-03-07T04:23:34;100835.19;;;10.67
70668;BMP280;58242;51.250;-1.118;2024-03-07T04:26:00;100838.97;;;10.66
70668;BMP280;58242;51.250;-1.118;2024-03-07T04:28:25;100835.50;;;10.66
70668;BMP280;58242;51.250;-1.118;2024-03-07T04:30:50;100839.28;;;10.65
70668;BMP280;58242;51.250;-1.118;2024-03-07T04:33:18;100841.94;;;10.65
70668;BMP280;58242;51.250;-1.118;2024-03-07T04:35:44;100840.06;;;10.65
70668;BMP280;58242;51.250;-1.118;2024-03-07T04:38:10;100841.16;;;10.64
70668;BMP280;58242;51.250;-1.118;2024-03-07T04:40:41;100845.41;;;10.65
70668;BMP280;58242;51.250;-1.118;2024-03-07T04:43:06;100844.00;;;10.68
70668;BMP280;58242;51.250;-1.118;2024-03-07T04:45:32;100845.28;;;10.70
70668;BMP280;58242;51.250;-1.118;2024-03-07T04:47:59;100849.22;;;10.73
70668;BMP280;58242;51.250;-1.118;2024-03-07T04:50:24;100846.72;;;10.76
70668;BMP280;58242;51.250;-1.118;2024-03-07T04:52:51;100839.97;;;10.78
70668;BMP280;58242;51.250;-1.118;2024-03-07T04:55:17;100840.47;;;10.80
70668;BMP280;58242;51.250;-1.118;2024-03-07T04:57:43;100843.63;;;10.82
70668;BMP280;58242;51.250;-1.118;2024-03-07T05:00:12;100847.88;;;10.83
70668;BMP280;58242;51.250;-1.118;2024-03-07T05:02:45;100851.81;;;10.86
70668;BMP280;58242;51.250;-1.118;2024-03-07T05:05:11;100847.25;;;10.86
70668;BMP280;58242;51.250;-1.118;2024-03-07T05:07:38;100836.25;;;10.88
70668;BMP280;58242;51.250;-1.118;2024-03-07T05:10:04;100839.41;;;10.90
70668;BMP280;58242;51.250;-1.118;2024-03-07T05:12:31;100839.13;;;10.91
70668;BMP280;58242;51.250;-1.118;2024-03-07T05:14:56;100836.91;;;10.93
70668;BMP280;58242;51.250;-1.118;2024-03-07T05:17:21;100843.56;;;10.95
70668;BMP280;58242;51.250;-1.118;2024-03-07T05:19:47;100843.22;;;10.97
70668;BMP280;58242;51.250;-1.118;2024-03-07T05:22:14;100840.75;;;11.00
70668;BMP280;58242;51.250;-1.118;2024-03-07T05:24:41;100835.88;;;11.02
70668;BMP280;58242;51.250;-1.118;2024-03-07T05:27:08;100842.47;;;11.05
70668;BMP280;58242;51.250;-1.118;2024-03-07T05:29:36;100839.50;;;11.06
70668;BMP280;58242;51.250;-1.118;2024-03-07T05:32:26;100832.44;;;11.10
70668;BMP280;58242;51.250;-1.118;2024-03-07T05:34:52;100837.16;;;11.13
70668;BMP280;58242;51.250;-1.118;2024-03-07T05:37:21;100841.44;;;11.14
70668;BMP280;58242;51.250;-1.118;2024-03-07T05:39:50;100834.66;;;11.16
70668;BMP280;58242;51.250;-1.118;2024-03-07T05:42:15;100838.13;;;11.17
70668;BMP280;58242;51.250;-1.118;2024-03-07T05:44:47;100835.44;;;11.17
70668;BMP280;58242;51.250;-1.118;2024-03-07T05:47:13;100843.47;;;11.17
70668;BMP280;58242;51.250;-1.118;2024-03-07T05:49:39;100832.78;;;11.17
70668;BMP280;58242;51.250;-1.118;2024-03-07T05:52:04;100835.44;;;11.17
70668;BMP280;58242;51.250;-1.118;2024-03-07T05:54:31;100829.31;;;11.16
70668;BMP280;58242;51.250;-1.118;2024-03-07T05:56:57;100828.50;;;11.16
70668;BMP280;58242;51.250;-1.118;2024-03-07T05:59:22;100835.78;;;11.15
70668;BMP280;58242;51.250;-1.118;2024-03-07T06:01:48;100840.00;;;11.16
70668;BMP280;58242;51.250;-1.118;2024-03-07T06:04:16;100840.00;;;11.16
70668;BMP280;58242;51.250;-1.118;2024-03-07T06:06:41;100840.81;;;11.17
70668;BMP280;58242;51.250;-1.118;2024-03-07T06:09:09;100838.13;;;11.17
70668;BMP280;58242;51.250;-1.118;2024-03-07T06:11:38;100836.06;;;11.14
70668;BMP280;58242;51.250;-1.118;2024-03-07T06:14:05;100840.16;;;11.11
70668;BMP280;58242;51.250;-1.118;2024-03-07T06:16:33;100844.72;;;11.11
70668;BMP280;58242;51.250;-1.118;2024-03-07T06:19:02;100837.78;;;11.10
70668;BMP280;58242;51.250;-1.118;2024-03-07T06:21:28;100841.56;;;11.09
70668;BMP280;58242;51.250;-1.118;2024-03-07T06:23:57;100845.03;;;11.10
70668;BMP280;58242;51.250;-1.118;2024-03-07T06:26:36;100837.28;;;11.08
70668;BMP280;58242;51.250;-1.118;2024-03-07T06:29:20;100838.88;;;11.09
70668;BMP280;58242;51.250;-1.118;2024-03-07T06:31:45;100832.75;;;11.09
70668;BMP280;58242;51.250;-1.118;2024-03-07T06:34:15;100830.56;;;11.11
70668;BMP280;58242;51.250;-1.118;2024-03-07T06:36:40;100832.44;;;11.10
70668;BMP280;58242;51.250;-1.118;2024-03-07T06:39:06;100835.91;;;11.11
70668;BMP280;58242;51.250;-1.118;2024-03-07T06:41:35;100829.47;;;11.11
70668;BMP280;58242;51.250;-1.118;2024-03-07T06:44:01;100829.47;;;11.11
70668;BMP280;58242;51.250;-1.118;2024-03-07T06:46:27;100821.13;;;11.13
70668;BMP280;58242;51.250;-1.118;2024-03-07T06:48:53;100823.78;;;11.13
70668;BMP280;58242;51.250;-1.118;2024-03-07T06:51:19;100829.63;;;11.15
70668;BMP280;58242;51.250;-1.118;2024-03-07T06:53:44;100817.81;;;11.16
70668;BMP280;58242;51.250;-1.118;2024-03-07T06:56:13;100819.91;;;11.19
70668;BMP280;58242;51.250;-1.118;2024-03-07T06:58:39;100823.53;;;11.23
70668;BMP280;58242;51.250;-1.118;2024-03-07T07:01:04;100820.53;;;11.24
70668;BMP280;58242;51.250;-1.118;2024-03-07T07:03:34;100820.72;;;11.28
70668;BMP280;58242;51.250;-1.118;2024-03-07T07:06:00;100819.63;;;11.28
70668;BMP280;58242;51.250;-1.118;2024-03-07T07:08:26;100820.91;;;11.31
70668;BMP280;58242;51.250;-1.118;2024-03-07T07:10:51;100817.13;;;11.32
70668;BMP280;58242;51.250;-1.118;2024-03-07T07:13:19;100823.44;;;11.36
70668;BMP280;58242;51.250;-1.118;2024-03-07T07:15:44;100821.25;;;11.38
70668;BMP280;58242;51.250;-1.118;2024-03-07T07:18:10;100819.84;;;11.40
70668;BMP280;58242;51.250;-1.118;2024-03-07T07:20:35;100826.78;;;11.41
70668;BMP280;58242;51.250;-1.118;2024-03-07T07:23:01;100816.53;;;11.43
70668;BMP280;58242;51.250;-1.118;2024-03-07T07:25:28;100827.09;;;11.48
70668;BMP280;58242;51.250;-1.118;2024-03-07T07:27:53;100816.41;;;11.48
70668;BMP280;58242;51.250;-1.118;2024-03-07T07:30:21;100822.22;;;11.50
70668;BMP280;58242;51.250;-1.118;2024-03-07T07:32:51;100818.16;;;11.52
70668;BMP280;58242;51.250;-1.118;2024-03-07T07:35:16;100816.72;;;11.55
70668;BMP280;58242;51.250;-1.118;2024-03-07T07:37:45;100814.22;;;11.58
70668;BMP280;58242;51.250;-1.118;2024-03-07T07:40:12;100824.28;;;11.53
70668;BMP280;58242;51.250;-1.118;2024-03-07T07:42:44;100819.91;;;11.57
70668;BMP280;58242;51.250;-1.118;2024-03-07T07:45:12;100817.97;;;11.57
70668;BMP280;58242;51.250;-1.118;2024-03-07T07:47:43;100816.59;;;11.60
70668;BMP280;58242;51.250;-1.118;2024-03-07T07:50:13;100812.31;;;11.59
70668;BMP280;58242;51.250;-1.118;2024-03-07T07:55:08;100817.69;;;11.59
70668;BMP280;58242;51.250;-1.118;2024-03-07T07:57:40;100818.16;;;11.61
70668;BMP280;58242;51.250;-1.118;2024-03-07T08:00:07;100822.41;;;11.62
70668;BMP280;58242;51.250;-1.118;2024-03-07T08:02:34;100814.06;;;11.63
70668;BMP280;58242;51.250;-1.118;2024-03-07T08:05:00;100814.22;;;11.66
70668;BMP280;58242;51.250;-1.118;2024-03-07T08:07:26;100810.63;;;11.71
70668;BMP280;58242;51.250;-1.118;2024-03-07T08:09:51;100794.72;;;11.74
70668;BMP280;58242;51.250;-1.118;2024-03-07T08:12:16;100805.28;;;11.79
70668;BMP280;58242;51.250;-1.118;2024-03-07T08:14:42;100792.03;;;11.82
70668;BMP280;58242;51.250;-1.118;2024-03-07T08:17:09;100793.78;;;11.87
70668;BMP280;58242;51.250;-1.118;2024-03-07T08:19:36;100792.81;;;11.91
70668;BMP280;58242;51.250;-1.118;2024-03-07T08:22:01;100775.81;;;11.96
70668;BMP280;58242;51.250;-1.118;2024-03-07T08:24:27;100784.78;;;11.99
70668;BMP280;58242;51.250;-1.118;2024-03-07T08:26:53;100780.88;;;12.05
70668;BMP280;58242;51.250;-1.118;2024-03-07T08:29:18;100780.38;;;12.12
70668;BMP280;58242;51.250;-1.118;2024-03-07T08:31:44;100779.09;;;12.17
70668;BMP280;58242;51.250;-1.118;2024-03-07T08:34:09;100775.81;;;12.20
70668;BMP280;58242;51.250;-1.118;2024-03-07T08:36:34;100770.59;;;12.24
70668;BMP280;58242;51.250;-1.118;2024-03-07T08:39:01;100771.22;;;12.29
70668;BMP280;58242;51.250;-1.118;2024-03-07T08:41:28;100770.09;;;12.38
70668;BMP280;58242;51.250;-1.118;2024-03-07T08:43:56;100775.75;;;12.45
70668;BMP280;58242;51.250;-1.118;2024-03-07T08:46:22;100768.34;;;12.50
70668;BMP280;58242;51.250;-1.118;2024-03-07T08:48:47;100772.75;;;12.55
70668;BMP280;58242;51.250;-1.118;2024-03-07T08:51:14;100767.25;;;12.60
70668;BMP280;58242;51.250;-1.118;2024-03-07T08:53:40;100767.06;;;12.65
70668;BMP280;58242;51.250;-1.118;2024-03-07T08:56:05;100768.94;;;12.72
70668;BMP280;58242;51.250;-1.118;2024-03-07T08:58:32;100767.66;;;12.78
70668;BMP280;58242;51.250;-1.118;2024-03-07T09:00:57;100770.47;;;12.82
70668;BMP280;58242;51.250;-1.118;2024-03-07T09:03:24;100761.81;;;12.84
70668;BMP280;58242;51.250;-1.118;2024-03-07T09:05:51;100766.84;;;12.86
70668;BMP280;58242;51.250;-1.118;2024-03-07T09:08:17;100764.94;;;12.86
70668;BMP280;58242;51.250;-1.118;2024-03-07T09:10:42;100750.56;;;12.91
70668;BMP280;58242;51.250;-1.118;2024-03-07T09:13:08;100759.06;;;12.93
70668;BMP280;58242;51.250;-1.118;2024-03-07T09:15:34;100748.94;;;12.98
70668;BMP280;58242;51.250;-1.118;2024-03-07T09:17:59;100749.84;;;13.10
70668;BMP280;58242;51.250;-1.118;2024-03-07T09:20:28;100747.53;;;13.29
70668;BMP280;58242;51.250;-1.118;2024-03-07T09:22:53;100748.63;;;13.56
70668;BMP280;58242;51.250;-1.118;2024-03-07T09:25:20;100745.63;;;13.77
70668;BMP280;58242;51.250;-1.118;2024-03-07T09:27:45;100748.66;;;13.96
70668;BMP280;58242;51.250;-1.118;2024-03-07T09:30:11;100751.47;;;14.19
70668;BMP280;58242;51.250;-1.118;2024-03-07T09:32:49;100748.44;;;14.52
70668;BMP280;58242;51.250;-1.118;2024-03-07T09:35:15;100749.50;;;14.83
70668;BMP280;58242;51.250;-1.118;2024-03-07T09:37:42;100738.91;;;15.21
70668;BMP280;58242;51.250;-1.118;2024-03-07T09:40:09;100731.88;;;15.78
70668;BMP280;58242;51.250;-1.118;2024-03-07T09:42:42;100730.56;;;16.53
70668;BMP280;58242;51.250;-1.118;2024-03-07T09:45:14;100743.06;;;16.87
70668;BMP280;58242;51.250;-1.118;2024-03-07T09:47:40;100740.66;;;16.97
70668;BMP280;58242;51.250;-1.118;2024-03-07T09:50:06;100731.91;;;17.04
70668;BMP280;58242;51.250;-1.118;2024-03-07T09:52:33;100726.75;;;17.44
70668;BMP280;58242;51.250;-1.118;2024-03-07T09:55:01;100725.16;;;17.77
70668;BMP280;58242;51.250;-1.118;2024-03-07T09:57:26;100721.72;;;17.95
70668;BMP280;58242;51.250;-1.118;2024-03-07T09:59:53;100722.50;;;17.95
70668;BMP280;58242;51.250;-1.118;2024-03-07T10:02:19;100721.72;;;17.95
70668;BMP280;58242;51.250;-1.118;2024-03-07T10:04:51;100717.09;;;18.14
70668;BMP280;58242;51.250;-1.118;2024-03-07T10:07:18;100721.06;;;18.38
70668;BMP280;58242;51.250;-1.118;2024-03-07T10:09:44;100712.06;;;18.52
70668;BMP280;58242;51.250;-1.118;2024-03-07T10:12:09;100714.88;;;18.59
70668;BMP280;58242;51.250;-1.118;2024-03-07T10:14:50;100718.50;;;18.66
70668;BMP280;58242;51.250;-1.118;2024-03-07T10:17:18;100720.59;;;18.95
70668;BMP280;58242;51.250;-1.118;2024-03-07T10:19:47;100700.06;;;19.19
70668;BMP280;58242;51.250;-1.118;2024-03-07T10:22:14;100702.28;;;19.35
70668;BMP280;58242;51.250;-1.118;2024-03-07T10:24:49;100701.50;;;19.60
70668;BMP280;58242;51.250;-1.118;2024-03-07T10:27:17;100689.88;;;19.88
70668;BMP280;58242;51.250;-1.118;2024-03-07T10:29:43;100695.88;;;20.04
70668;BMP280;58242;51.250;-1.118;2024-03-07T10:32:12;100694.56;;;20.23
70668;BMP280;58242;51.250;-1.118;2024-03-07T10:34:38;100695.06;;;20.32
70668;BMP280;58242;51.250;-1.118;2024-03-07T10:37:04;100700.16;;;20.34
70668;BMP280;58242;51.250;-1.118;2024-03-07T10:39:30;100700.03;;;20.27
70668;BMP280;58242;51.250;-1.118;2024-03-07T10:41:59;100686.31;;;20.17
70668;BMP280;58242;51.250;-1.118;2024-03-07T10:44:30;100686.72;;;20.15
70668;BMP280;58242;51.250;-1.118;2024-03-07T10:46:57;100685.09;;;20.11
70668;BMP280;58242;51.250;-1.118;2024-03-07T10:49:25;100683.50;;;20.06
70668;BMP280;58242;51.250;-1.118;2024-03-07T10:52:07;100677.63;;;20.01
70668;BMP280;58242;51.250;-1.118;2024-03-07T10:54:48;100667.09;;;19.96
70668;BMP280;58242;51.250;-1.118;2024-03-07T10:57:57;100667.22;;;20.06
70668;BMP280;58242;51.250;-1.118;2024-03-07T11:00:26;100668.06;;;20.46
70668;BMP280;58242;51.250;-1.118;2024-03-07T11:03:10;100660.16;;;21.15
70668;BMP280;58242;51.250;-1.118;2024-03-07T11:05:36;100660.25;;;22.02
70668;BMP280;58242;51.250;-1.118;2024-03-07T11:08:03;100639.78;;;22.99
70668;BMP280;58242;51.250;-1.118;2024-03-07T11:10:36;100634.13;;;23.95
70668;BMP280;58242;51.250;-1.118;2024-03-07T11:13:03;100637.66;;;24.58
70668;BMP280;58242;51.250;-1.118;2024-03-07T11:15:29;100645.97;;;24.94
70668;BMP280;58242;51.250;-1.118;2024-03-07T11:17:56;100636.13;;;25.00
70668;BMP280;58242;51.250;-1.118;2024-03-07T11:20:22;100642.56;;;24.84
70668;BMP280;58242;51.250;-1.118;2024-03-07T11:22:51;100640.78;;;24.60
70668;BMP280;58242;51.250;-1.118;2024-03-07T11:25:21;100632.06;;;24.16
70668;BMP280;58242;51.250;-1.118;2024-03-07T11:27:57;100629.16;;;23.63
70668;BMP280;58242;51.250;-1.118;2024-03-07T11:30:23;100631.97;;;23.12
70668;BMP280;58242;51.250;-1.118;2024-03-07T11:32:50;100625.00;;;22.70
70668;BMP280;58242;51.250;-1.118;2024-03-07T11:35:22;100628.44;;;22.33
70668;BMP280;58242;51.250;-1.118;2024-03-07T11:37:58;100615.50;;;21.89
70668;BMP280;58242;51.250;-1.118;2024-03-07T11:42:53;100612.81;;;21.26
70668;BMP280;58242;51.250;-1.118;2024-03-07T11:45:20;100610.69;;;21.03
70668;BMP280;58242;51.250;-1.118;2024-03-07T11:47:53;100603.91;;;20.77
70668;BMP280;58242;51.250;-1.118;2024-03-07T11:50:35;100609.44;;;20.41
70668;BMP280;58242;51.250;-1.118;2024-03-07T11:53:02;100607.88;;;20.05
70668;BMP280;58242;51.250;-1.118;2024-03-07T11:55:28;100600.84;;;19.69
70668;BMP280;58242;51.250;-1.118;2024-03-07T11:58:19;100598.06;;;19.33
70668;BMP280;58242;51.250;-1.118;2024-03-07T12:00:47;100589.94;;;19.08
70668;BMP280;58242;51.250;-1.118;2024-03-07T12:03:13;100583.06;;;18.88
70668;BMP280;58242;51.250;-1.118;2024-03-07T12:05:40;100583.16;;;18.70
70668;BMP280;58242;51.250;-1.118;2024-03-07T12:08:10;100580.94;;;18.53
70668;BMP280;58242;51.250;-1.118;2024-03-07T12:10:39;100583.41;;;18.40
70668;BMP280;58242;51.250;-1.118;2024-03-07T12:13:06;100576.63;;;18.27
70668;BMP280;58242;51.250;-1.118;2024-03-07T12:15:32;100563.28;;;18.15
70668;BMP280;58242;51.250;-1.118;2024-03-07T12:18:00;100566.16;;;18.04
70668;BMP280;58242;51.250;-1.118;2024-03-07T12:20:27;100552.50;;;17.97
70668;BMP280;58242;51.250;-1.118;2024-03-07T12:23:02;100558.50;;;17.87
70668;BMP280;58242;51.250;-1.118;2024-03-07T12:25:31;100557.56;;;17.80
70668;BMP280;58242;51.250;-1.118;2024-03-07T12:28:01;100544.31;;;17.75
70668;BMP280;58242;51.250;-1.118;2024-03-07T12:30:52;100550.31;;;17.65
70668;BMP280;58242;51.250;-1.118;2024-03-07T12:33:19;100547.47;;;17.59
70668;BMP280;58242;51.250;-1.118;2024-03-07T12:35:49;100534.63;;;17.52
70668;BMP280;58242;51.250;-1.118;2024-03-07T12:38:17;100538.72;;;17.46
70668;BMP280;58242;51.250;-1.118;2024-03-07T12:40:43;100530.56;;;17.43
70668;BMP280;58242;51.250;-1.118;2024-03-07T12:43:16;100523.09;;;17.37
70668;BMP280;58242;51.250;-1.118;2024-03-07T12:45:48;100517.25;;;17.35
70668;BMP280;58242;51.250;-1.118;2024-03-07T12:48:14;100516.13;;;17.36
70668;BMP280;58242;51.250;-1.118;2024-03-07T12:50:40;100509.94;;;17.35
70668;BMP280;58242;51.250;-1.118;2024-03-07T12:53:06;100507.56;;;17.34
70668;BMP280;58242;51.250;-1.118;2024-03-07T12:55:40;100505.59;;;17.31
70668;BMP280;58242;51.250;-1.118;2024-03-07T12:58:09;100507.16;;;17.32
70668;BMP280;58242;51.250;-1.118;2024-03-07T13:00:40;100497.22;;;17.36
70668;BMP280;58242;51.250;-1.118;2024-03-07T13:03:09;100500.75;;;17.40
70668;BMP280;58242;51.250;-1.118;2024-03-07T13:05:38;100490.00;;;17.43
70668;BMP280;58242;51.250;-1.118;2024-03-07T13:08:08;100479.56;;;17.42
70668;BMP280;58242;51.250;-1.118;2024-03-07T13:10:38;100487.97;;;17.37
70668;BMP280;58242;51.250;-1.118;2024-03-07T13:13:03;100475.47;;;17.29
70668;BMP280;58242;51.250;-1.118;2024-03-07T13:15:29;100479.28;;;17.28
70668;BMP280;58242;51.250;-1.118;2024-03-07T13:17:55;100461.50;;;17.27
70668;BMP280;58242;51.250;-1.118;2024-03-07T13:20:20;100470.00;;;17.26
70668;BMP280;58242;51.250;-1.118;2024-03-07T13:22:51;100467.63;;;17.24
70668;BMP280;58242;51.250;-1.118;2024-03-07T13:25:20;100459.19;;;17.26
70668;BMP280;58242;51.250;-1.118;2024-03-07T13:28:12;100460.50;;;17.35
70668;BMP280;58242;51.250;-1.118;2024-03-07T13:30:42;100444.47;;;17.45
70668;BMP280;58242;51.250;-1.118;2024-03-07T13:33:09;100450.50;;;17.57
70668;BMP280;58242;51.250;-1.118;2024-03-07T13:35:37;100435.19;;;17.64
70668;BMP280;58242;51.250;-1.118;2024-03-07T13:38:03;100437.25;;;17.71
70668;BMP280;58242;51.250;-1.118;2024-03-07T13:40:29;100428.03;;;17.75
70668;BMP280;58242;51.250;-1.118;2024-03-07T13:42:56;100432.34;;;17.80
70668;BMP280;58242;51.250;-1.118;2024-03-07T13:45:35;100427.03;;;17.83
70668;BMP280;58242;51.250;-1.118;2024-03-07T13:48:09;100427.13;;;17.86
70668;BMP280;58242;51.250;-1.118;2024-03-07T13:50:44;100406.47;;;18.00